Time;durP1;ratioP1;P1;durP2;ratioP2;P2;SDS_P1;SDS_P2;PMS_P1;PMS_P2;Temp;Humidity;BMP_temperature;BMP_pressure;BME280_temperature;BME280_humidity;BME280_pressure;Samples;Min_cycle;Max_cycle;Signal;HPM_P1;HPM_P2
2022/01/19 00:01:35;;;;;;;5.20;4.10;;;20.50;43.70;;;;;;5051228;28;43592;-65
2022/01/19 00:04:04;;;;;;;5.07;4.57;;;20.50;43.80;;;;;;5049430;28;43563;-65
2022/01/19 00:06:31;;;;;;;5.05;4.55;;;20.60;43.80;;;;;;5081253;27;45623;-65
2022/01/19 00:08:59;;;;;;;4.82;4.30;;;20.60;43.80;;;;;;5041404;28;44210;-66
2022/01/19 00:11:26;;;;;;;5.07;4.30;;;20.50;43.80;;;;;;5047486;28;43500;-66
2022/01/19 00:13:54;;;;;;;4.25;3.85;;;20.50;43.80;;;;;;5042490;28;44041;-65
2022/01/19 00:16:21;;;;;;;4.72;4.32;;;20.50;43.80;;;;;;5073694;27;43967;-65
2022/01/19 00:18:49;;;;;;;4.63;4.10;;;20.50;43.80;;;;;;5044099;28;43529;-65
2022/01/19 00:21:16;;;;;;;4.68;3.97;;;20.50;43.80;;;;;;5043224;28;43454;-65
2022/01/19 00:23:44;;;;;;;6.07;4.57;;;20.40;43.80;;;;;;5077315;27;43546;-66
2022/01/19 00:26:12;;;;;;;4.82;4.20;;;20.40;43.80;;;;;;5060484;28;47185;-65
2022/01/19 00:28:40;;;;;;;5.03;4.30;;;20.40;43.90;;;;;;5044952;28;43581;-65
2022/01/19 00:31:07;;;;;;;5.22;4.28;;;20.40;43.80;;;;;;5045032;28;43428;-65
2022/01/19 00:33:36;;;;;;;4.63;4.20;;;20.40;43.80;;;;;;5046274;28;43623;-66
2022/01/19 00:36:05;;;;;;;5.53;4.78;;;20.40;43.90;;;;;;5044894;28;44928;-65
2022/01/19 00:38:32;;;;;;;5.88;4.68;;;20.40;43.80;;;;;;5045188;28;43994;-66
2022/01/19 00:41:01;;;;;;;5.57;4.53;;;20.40;43.90;;;;;;5062468;28;43404;-65
2022/01/19 00:43:28;;;;;;;5.20;4.65;;;20.40;43.90;;;;;;5046199;28;43562;-65
2022/01/19 00:45:56;;;;;;;4.78;4.30;;;20.40;43.80;;;;;;5045965;28;44015;-65
2022/01/19 00:48:26;;;;;;;5.22;4.60;;;20.40;43.90;;;;;;5046688;28;43591;-65
2022/01/19 00:50:55;;;;;;;4.82;4.32;;;20.40;43.90;;;;;;5045705;28;43560;-66
2022/01/19 00:53:22;;;;;;;5.38;4.57;;;20.30;43.90;;;;;;5047412;28;43506;-66
2022/01/19 00:55:50;;;;;;;5.00;4.50;;;20.30;43.90;;;;;;5031198;28;43943;-65
2022/01/19 00:58:18;;;;;;;6.25;4.82;;;20.30;43.90;;;;;;5045938;28;43516;-65
2022/01/19 01:00:47;;;;;;;5.38;4.55;;;20.30;43.90;;;;;;5078197;27;43542;-65
2022/01/19 01:03:15;;;;;;;5.18;4.68;;;20.30;43.90;;;;;;5043902;28;43774;-65
2022/01/19 01:05:44;;;;;;;5.95;5.22;;;20.30;43.90;;;;;;5046039;28;43564;-66
2022/01/19 01:08:12;;;;;;;4.72;4.20;;;20.30;43.90;;;;;;5050121;28;43716;-65
2022/01/19 01:10:42;;;;;;;4.88;4.38;;;20.30;43.90;;;;;;5044544;28;43685;-65
2022/01/19 01:16:17;;;;;;;5.20;4.50;;;20.30;43.90;;;;;;5043200;28;44044;-65
2022/01/19 01:18:45;;;;;;;5.43;4.75;;;20.20;43.90;;;;;;5049418;28;43511;-65
2022/01/19 01:21:12;;;;;;;5.00;4.15;;;20.20;43.90;;;;;;5035107;28;43506;-65
2022/01/19 01:23:41;;;;;;;4.85;4.35;;;20.20;43.90;;;;;;5050020;28;44098;-65
2022/01/19 01:26:10;;;;;;;5.07;4.47;;;20.20;44.00;;;;;;5064873;28;43644;-65
2022/01/19 01:28:38;;;;;;;5.47;4.70;;;20.20;44.10;;;;;;5034205;28;43741;-65
2022/01/19 01:31:08;;;;;;;5.13;4.40;;;20.20;44.10;;;;;;5079758;27;43811;-66
2022/01/19 01:33:38;;;;;;;4.45;4.05;;;20.20;44.10;;;;;;5045075;28;43493;-65
2022/01/19 01:36:08;;;;;;;5.45;4.65;;;20.20;44.00;;;;;;5032893;28;44624;-66
2022/01/19 01:38:37;;;;;;;5.15;4.65;;;20.20;44.00;;;;;;5066762;28;43543;-65
2022/01/19 01:41:13;;;;;;;5.57;4.90;;;20.20;44.10;;;;;;5045890;28;43528;-65
2022/01/19 01:43:57;;;;;;;5.70;5.10;;;20.10;44.00;;;;;;5033635;28;43596;-65
2022/01/19 01:46:35;;;;;;;5.25;4.75;;;20.10;44.00;;;;;;5065874;28;44902;-65
2022/01/19 01:49:08;;;;;;;5.35;4.53;;;20.10;44.10;;;;;;5082730;27;43505;-65
2022/01/19 01:54:22;;;;;;;4.88;4.25;;;20.10;44.10;;;;;;5030393;28;43524;-65
2022/01/19 01:56:49;;;;;;;5.68;4.72;;;20.10;44.80;;;;;;5069526;28;44473;-66
2022/01/19 01:59:17;;;;;;;5.30;4.47;;;20.10;44.10;;;;;;5024230;28;43492;-65
2022/01/19 02:02:11;;;;;;;4.95;4.40;;;20.10;44.10;;;;;;5043086;28;43541;-65
2022/01/19 02:04:41;;;;;;;5.30;4.03;;;20.10;44.10;;;;;;5062453;28;43641;-65
2022/01/19 02:07:32;;;;;;;4.85;4.35;;;20.10;44.10;;;;;;5038742;28;43806;-65
2022/01/19 02:10:05;;;;;;;4.72;4.20;;;20.10;44.10;;;;;;5038136;28;43773;-66
2022/01/19 02:23:46;;;;;;;5.35;4.45;;;20.00;44.20;;;;;;5076224;27;43460;-66
2022/01/19 02:27:06;;;;;;;4.97;4.15;;;20.00;44.20;;;;;;5043814;28;43585;-65
2022/01/19 02:29:17;;;;;;;4.53;4.10;;;20.00;44.30;;;;;;5041058;28;45019;-65
2022/01/19 02:42:51;;;;;;;5.35;4.45;;;19.90;44.90;;;;;;5077574;27;43717;-65
2022/01/19 02:50:44;;;;;;;5.05;4.55;;;19.90;44.30;;;;;;5041673;28;43755;-65
2022/01/19 02:53:11;;;;;;;5.70;4.35;;;19.90;44.40;;;;;;5061518;28;43461;-65
2022/01/19 02:55:39;;;;;;;5.15;4.50;;;19.80;44.30;;;;;;5028382;28;43741;-65
2022/01/19 02:58:07;;;;;;;5.97;4.75;;;19.80;44.30;;;;;;5046316;28;43579;-65
2022/01/19 03:09:05;;;;;;;4.88;4.07;;;19.80;44.30;;;;;;5028094;28;43481;-65
2022/01/19 03:11:34;;;;;;;5.60;4.40;;;19.80;44.30;;;;;;5063150;28;44032;-65
2022/01/19 03:14:03;;;;;;;4.57;4.10;;;19.80;44.30;;;;;;5026306;28;44328;-65
2022/01/19 03:16:31;;;;;;;5.07;4.57;;;19.80;44.30;;;;;;5063240;28;43533;-65
2022/01/19 03:18:58;;;;;;;5.20;4.25;;;19.80;44.30;;;;;;5047700;28;43691;-66
2022/01/19 03:21:27;;;;;;;7.13;4.25;;;19.80;44.30;;;;;;5064848;28;43937;-65
2022/01/19 03:23:54;;;;;;;4.45;4.00;;;19.70;44.20;;;;;;5062654;28;45104;-65
2022/01/19 03:26:22;;;;;;;5.72;4.47;;;19.70;44.30;;;;;;5063125;28;43522;-65
2022/01/19 03:29:08;;;;;;;5.63;4.28;;;19.70;44.30;;;;;;5047274;28;43653;-65
2022/01/19 03:31:36;;;;;;;5.03;4.50;;;19.70;44.30;;;;;;5063022;28;44676;-65
2022/01/19 03:34:04;;;;;;;5.82;4.95;;;19.70;44.30;;;;;;5082539;27;44156;-65
2022/01/19 03:36:32;;;;;;;5.53;4.45;;;19.70;44.40;;;;;;5048495;28;43479;-65
2022/01/19 03:39:00;;;;;;;5.75;4.40;;;19.70;44.30;;;;;;5047748;28;43648;-65
2022/01/19 03:41:27;;;;;;;6.93;5.00;;;19.70;44.30;;;;;;5047520;28;43657;-65
2022/01/19 03:43:55;;;;;;;5.18;4.47;;;19.70;44.40;;;;;;5063945;28;43985;-65
2022/01/19 03:46:32;;;;;;;5.95;4.95;;;19.70;44.40;;;;;;5046970;28;43511;-65
2022/01/19 03:49:10;;;;;;;6.10;5.00;;;19.70;44.40;;;;;;5054890;28;43519;-65
2022/01/19 03:51:38;;;;;;;4.80;4.35;;;19.60;44.30;;;;;;5056086;28;44118;-65
2022/01/19 03:54:06;;;;;;;6.07;4.57;;;19.60;44.30;;;;;;5046588;28;44300;-65
2022/01/19 03:56:34;;;;;;;5.90;5.07;;;19.60;44.30;;;;;;5054716;28;43503;-65
2022/01/19 03:59:02;;;;;;;7.00;5.10;;;19.60;44.30;;;;;;5040703;28;43654;-65
2022/01/19 04:01:30;;;;;;;7.00;5.13;;;19.60;44.30;;;;;;5057291;28;43812;-65
2022/01/19 04:04:36;;;;;;;6.38;4.82;;;19.60;44.20;;;;;;5039778;28;43499;-65
2022/01/19 04:09:19;;;;;;;6.07;5.03;;;19.60;44.30;;;;;;5023613;28;43663;-65
2022/01/19 04:11:47;;;;;;;6.18;4.90;;;19.50;44.30;;;;;;5040758;28;43843;-65
2022/01/19 04:14:24;;;;;;;8.05;5.80;;;19.50;44.20;;;;;;5049464;28;43976;-65
2022/01/19 04:17:02;;;;;;;6.60;5.10;;;19.50;44.30;;;;;;5038401;28;43467;-66
2022/01/19 04:19:33;;;;;;;7.60;5.53;;;19.50;44.20;;;;;;5040133;28;43512;-65
2022/01/19 04:22:13;;;;;;;6.35;5.45;;;19.50;44.20;;;;;;5057465;28;44072;-65
2022/01/19 04:24:43;;;;;;;7.75;5.72;;;19.50;44.30;;;;;;5042266;28;43586;-65
2022/01/19 04:30:18;;;;;;;7.85;5.53;;;19.50;44.30;;;;;;5059614;28;43444;-65
2022/01/19 04:33:04;;;;;;;7.65;5.40;;;19.50;44.40;;;;;;5055232;28;45650;-65
2022/01/19 04:35:50;;;;;;;6.22;5.55;;;19.50;44.30;;;;;;5027570;28;44979;-65
2022/01/19 05:03:44;;;;;;;8.20;5.63;;;19.30;44.40;;;;;;5041303;28;43707;-65
2022/01/19 05:06:24;;;;;;;8.65;5.57;;;19.30;44.40;;;;;;5047015;28;44068;-65
2022/01/19 05:09:06;;;;;;;9.18;6.32;;;19.30;44.40;;;;;;5079568;27;43461;-65
2022/01/19 05:14:20;;;;;;;9.88;6.38;;;19.30;44.40;;;;;;5046421;28;43576;-65
2022/01/19 05:16:48;;;;;;;7.45;5.75;;;19.30;44.40;;;;;;5046874;28;44213;-65
2022/01/19 05:19:16;;;;;;;8.55;6.03;;;19.30;44.40;;;;;;5066603;28;43462;-65
2022/01/19 05:21:46;;;;;;;8.18;5.85;;;19.30;44.40;;;;;;5073333;27;43478;-65
2022/01/19 05:24:13;;;;;;;7.45;5.72;;;19.20;44.30;;;;;;5046386;28;43552;-65
2022/01/19 05:26:51;;;;;;;8.93;6.32;;;19.20;44.30;;;;;;5051388;28;45092;-65
2022/01/19 05:29:26;;;;;;;8.40;6.50;;;19.20;44.30;;;;;;5052645;28;44168;-65
2022/01/19 05:31:54;;;;;;;7.78;6.00;;;19.20;44.30;;;;;;5087459;27;43552;-65
2022/01/19 05:34:22;;;;;;;7.57;5.75;;;19.20;44.40;;;;;;5082290;27;43564;-65
2022/01/19 05:36:57;;;;;;;7.30;5.47;;;19.20;44.40;;;;;;5060421;28;44800;-65
2022/01/19 05:39:51;;;;;;;7.82;5.35;;;19.20;44.40;;;;;;5035904;28;43726;-65
2022/01/19 05:42:36;;;;;;;7.68;5.80;;;19.20;44.40;;;;;;5031064;28;44187;-65
2022/01/19 05:45:05;;;;;;;7.47;5.35;;;19.10;44.40;;;;;;5043848;28;43497;-65
2022/01/19 05:47:33;;;;;;;9.27;6.03;;;19.10;44.40;;;;;;5043730;28;43736;-65
2022/01/19 05:50:01;;;;;;;8.93;6.45;;;19.10;44.40;;;;;;5060729;28;44068;-66
2022/01/19 05:52:29;;;;;;;6.15;5.30;;;19.10;44.50;;;;;;5058408;28;43501;-65
2022/01/19 05:54:56;;;;;;;8.05;5.65;;;19.10;44.40;;;;;;5038166;28;43674;-65
2022/01/19 05:57:24;;;;;;;6.63;5.35;;;19.10;44.50;;;;;;5054222;28;44186;-65
2022/01/19 05:59:52;;;;;;;7.07;5.57;;;19.20;44.60;;;;;;5043247;28;43537;-65
2022/01/19 06:02:19;;;;;;;7.28;5.70;;;19.10;44.60;;;;;;5057589;28;43462;-65
2022/01/19 06:04:49;;;;;;;7.30;5.45;;;19.10;44.60;;;;;;5044800;28;43635;-65
2022/01/19 06:07:47;;;;;;;6.93;5.40;;;19.10;44.60;;;;;;5021230;28;44191;-65
2022/01/19 06:10:43;;;;;;;8.48;5.47;;;19.10;44.70;;;;;;5040936;28;43475;-65
2022/01/19 06:13:13;;;;;;;6.95;5.28;;;19.10;44.70;;;;;;5021840;28;43513;-65
2022/01/19 06:15:42;;;;;;;8.07;5.90;;;19.10;44.60;;;;;;5026110;28;43592;-65
2022/01/19 06:18:10;;;;;;;8.52;6.03;;;19.10;44.60;;;;;;5036360;28;43875;-65
2022/01/19 06:20:39;;;;;;;7.43;5.13;;;19.10;44.70;;;;;;5057987;28;43939;-65
2022/01/19 06:23:07;;;;;;;6.78;5.22;;;19.10;44.70;;;;;;5024629;28;43516;-65
2022/01/19 06:25:40;;;;;;;6.32;4.85;;;19.10;44.60;;;;;;5041222;28;43527;-65
2022/01/19 06:28:11;;;;;;;5.70;5.05;;;19.10;44.70;;;;;;5039850;28;44898;-65
2022/01/19 06:30:39;;;;;;;7.90;5.88;;;19.10;44.60;;;;;;5068495;27;43482;-66
2022/01/19 06:33:07;;;;;;;5.85;4.90;;;19.10;44.60;;;;;;5024790;28;43481;-65
2022/01/19 06:35:39;;;;;;;5.97;4.93;;;19.10;44.60;;;;;;5041055;28;43560;-65
2022/01/19 06:38:12;;;;;;;6.45;5.05;;;19.10;44.70;;;;;;5056470;28;43638;-65
2022/01/19 06:40:58;;;;;;;6.72;5.20;;;19.10;44.60;;;;;;5070894;27;43597;-65
2022/01/19 06:43:26;;;;;;;7.75;5.25;;;19.10;44.60;;;;;;5040899;28;43623;-65
2022/01/19 06:45:56;;;;;;;5.82;4.60;;;19.10;44.60;;;;;;5040546;28;43613;-65
2022/01/19 06:48:25;;;;;;;5.45;4.32;;;19.10;44.70;;;;;;5055303;28;43632;-65
2022/01/19 06:50:53;;;;;;;6.65;5.43;;;19.10;44.60;;;;;;5041236;28;43467;-65
2022/01/19 06:53:29;;;;;;;5.70;4.63;;;19.10;44.60;;;;;;5040649;28;43427;-64
2022/01/19 06:56:18;;;;;;;6.50;4.60;;;19.10;44.50;;;;;;5057142;28;43582;-65
2022/01/19 06:58:48;;;;;;;6.35;4.63;;;19.10;44.60;;;;;;5039102;28;46045;-66
2022/01/19 07:01:20;;;;;;;5.07;4.22;;;19.10;44.60;;;;;;5040220;28;43522;-65
2022/01/19 07:04:04;;;;;;;5.50;4.30;;;19.20;44.60;;;;;;5039288;28;43497;-66
2022/01/19 07:06:33;;;;;;;5.00;4.50;;;19.20;44.60;;;;;;5040193;28;43565;-65
2022/01/19 07:09:17;;;;;;;4.55;3.90;;;19.20;44.70;;;;;;5038360;28;44302;-66
2022/01/19 07:11:51;;;;;;;5.90;4.20;;;19.20;44.60;;;;;;5021247;28;43534;-65
2022/01/19 07:14:19;;;;;;;5.38;4.10;;;19.20;44.50;;;;;;5041489;28;43484;-65
2022/01/19 07:16:49;;;;;;;4.78;3.97;;;19.30;44.60;;;;;;5038986;28;43584;-65
2022/01/19 07:19:16;;;;;;;4.32;3.92;;;19.30;44.60;;;;;;5040139;28;44415;-65
2022/01/19 07:21:46;;;;;;;5.57;4.00;;;19.30;44.50;;;;;;5039628;28;43446;-65
2022/01/19 07:24:14;;;;;;;5.18;4.32;;;19.30;44.50;;;;;;5040599;28;43538;-65
2022/01/19 07:26:42;;;;;;;4.22;3.38;;;19.30;44.50;;;;;;5040256;28;43573;-65
2022/01/19 07:29:12;;;;;;;4.38;3.92;;;19.30;44.40;;;;;;5061639;28;44915;-65
2022/01/19 07:31:43;;;;;;;5.47;4.20;;;19.30;44.40;;;;;;5009866;28;43515;-65
2022/01/19 07:34:11;;;;;;;5.38;3.80;;;19.40;44.50;;;;;;5040144;28;43532;-65
2022/01/19 07:36:42;;;;;;;4.28;3.70;;;19.40;44.40;;;;;;5056986;28;43473;-65
2022/01/19 07:39:09;;;;;;;5.10;4.00;;;19.40;44.40;;;;;;5039577;28;44695;-65
2022/01/19 07:41:38;;;;;;;4.60;3.83;;;19.40;44.40;;;;;;5040044;28;43982;-65
2022/01/19 07:44:25;;;;;;;4.45;3.63;;;19.40;44.30;;;;;;5040594;28;43851;-65
2022/01/19 07:47:13;;;;;;;4.50;4.05;;;19.50;44.40;;;;;;5019856;28;43667;-66
2022/01/19 07:50:10;;;;;;;3.97;3.58;;;19.50;44.40;;;;;;5022254;28;45860;-65
2022/01/19 07:53:01;;;;;;;4.65;4.15;;;19.50;44.30;;;;;;5029279;28;43527;-65
2022/01/19 07:55:42;;;;;;;4.15;3.80;;;19.50;44.30;;;;;;5022098;28;43509;-65
2022/01/19 07:58:39;;;;;;;4.80;3.63;;;19.50;44.40;;;;;;5028520;28;43564;-66
2022/01/19 08:01:10;;;;;;;4.53;3.60;;;19.50;44.30;;;;;;5024524;28;43933;-65
2022/01/19 08:03:47;;;;;;;5.53;3.65;;;19.50;44.30;;;;;;5064044;28;43826;-65
2022/01/19 08:06:22;;;;;;;4.30;3.47;;;19.60;44.40;;;;;;5061761;28;43471;-65
2022/01/19 08:08:53;;;;;;;4.22;3.45;;;19.50;44.40;;;;;;5058956;28;43463;-64
2022/01/19 08:11:21;;;;;;;4.20;3.80;;;19.60;44.40;;;;;;5024152;28;45005;-64
2022/01/19 08:13:56;;;;;;;5.35;3.97;;;19.60;44.60;;;;;;5029849;28;43480;-65
2022/01/19 08:16:23;;;;;;;3.92;3.50;;;19.60;44.60;;;;;;5078621;27;43557;-65
2022/01/19 08:18:51;;;;;;;4.18;3.78;;;19.60;44.50;;;;;;5054501;28;43540;-64
2022/01/19 08:21:20;;;;;;;4.45;3.90;;;19.60;44.50;;;;;;5085703;27;44952;-66
2022/01/19 08:23:55;;;;;;;4.85;3.67;;;19.60;44.60;;;;;;5080540;27;43479;-65
2022/01/19 08:26:23;;;;;;;4.13;3.72;;;19.70;44.60;;;;;;5054135;28;43543;-65
2022/01/19 08:28:54;;;;;;;4.43;3.65;;;19.70;44.60;;;;;;5053947;28;43470;-64
2022/01/19 08:31:22;;;;;;;5.45;3.65;;;19.70;44.60;;;;;;5032851;28;44190;-65
2022/01/19 08:34:08;;;;;;;4.68;4.20;;;19.70;44.60;;;;;;5048459;28;43514;-65
2022/01/19 08:36:54;;;;;;;5.93;4.13;;;19.70;44.50;;;;;;5047032;28;43590;-64
2022/01/19 08:39:29;;;;;;;5.15;4.18;;;19.80;44.60;;;;;;5031169;28;43565;-65
2022/01/19 08:41:57;;;;;;;4.72;3.95;;;19.80;44.60;;;;;;5049008;28;44341;-65
2022/01/19 08:44:24;;;;;;;5.47;3.75;;;19.80;44.60;;;;;;5037904;28;43930;-65
2022/01/19 08:47:04;;;;;;;4.10;3.60;;;19.80;44.50;;;;;;5071038;28;43573;-65
2022/01/19 08:50:15;;;;;;;4.78;3.88;;;19.80;44.50;;;;;;5050758;28;43618;-64
2022/01/19 08:52:50;;;;;;;4.60;3.40;;;19.80;44.50;;;;;;5034652;28;44686;-65
2022/01/19 08:55:30;;;;;;;4.63;4.10;;;19.90;44.50;;;;;;5087121;27;43518;-64
2022/01/19 08:57:58;;;;;;;5.18;4.07;;;19.80;44.40;;;;;;5079973;27;43477;-65
2022/01/19 09:00:25;;;;;;;4.60;4.10;;;19.90;44.40;;;;;;5044298;28;43621;-65
2022/01/19 09:02:52;;;;;;;5.07;3.90;;;19.90;44.40;;;;;;5045637;28;44663;-65
2022/01/19 09:05:20;;;;;;;5.15;4.18;;;19.90;44.40;;;;;;5040273;28;43569;-65
2022/01/19 09:07:48;;;;;;;4.90;4.38;;;19.90;44.30;;;;;;5060597;28;43644;-65
2022/01/19 09:10:16;;;;;;;4.20;3.80;;;19.90;44.30;;;;;;5039605;28;43600;-65
2022/01/19 09:12:44;;;;;;;5.18;4.18;;;19.90;44.30;;;;;;5040860;28;43992;-65
2022/01/19 09:15:12;;;;;;;4.57;3.90;;;19.90;44.40;;;;;;5044396;28;43513;-65
2022/01/19 09:17:41;;;;;;;5.18;4.05;;;20.00;44.40;;;;;;5044558;28;43472;-65
2022/01/19 09:20:11;;;;;;;4.35;3.92;;;20.00;44.40;;;;;;5046871;28;43606;-65
2022/01/19 09:22:40;;;;;;;5.20;4.50;;;20.00;44.40;;;;;;5046274;28;44009;-64
2022/01/19 09:25:10;;;;;;;4.80;4.25;;;20.00;44.30;;;;;;5045714;28;43420;-65
2022/01/19 09:27:40;;;;;;;5.47;4.28;;;20.00;44.50;;;;;;5043949;28;43450;-65
2022/01/19 09:30:17;;;;;;;4.43;3.90;;;20.00;44.30;;;;;;5047356;28;43568;-65
2022/01/19 09:32:54;;;;;;;4.85;4.00;;;20.00;44.30;;;;;;5046132;28;44956;-65
2022/01/19 09:35:25;;;;;;;6.47;3.92;;;20.10;44.40;;;;;;5079630;27;43590;-65
2022/01/19 09:37:53;;;;;;;6.40;4.20;;;20.10;44.40;;;;;;5045338;28;43501;-65
2022/01/19 09:40:29;;;;;;;4.43;3.92;;;20.10;44.30;;;;;;5047009;28;43546;-65
2022/01/19 09:43:07;;;;;;;4.65;3.97;;;20.10;44.30;;;;;;5047350;28;44143;-65
2022/01/19 09:45:35;;;;;;;4.32;3.90;;;20.10;45.00;;;;;;5045281;28;43503;-65
2022/01/19 09:48:03;;;;;;;4.70;4.13;;;20.20;44.30;;;;;;5047987;28;43476;-65
2022/01/19 09:50:31;;;;;;;4.47;4.07;;;20.10;44.30;;;;;;5048861;28;43514;-65
2022/01/19 09:53:03;;;;;;;4.97;4.05;;;20.10;44.20;;;;;;5081312;27;44622;-65
2022/01/19 09:55:31;;;;;;;6.43;4.10;;;20.20;44.30;;;;;;5050209;28;43550;-65
2022/01/19 09:57:58;;;;;;;5.20;3.90;;;20.20;44.20;;;;;;5047616;28;43498;-64
2022/01/19 10:00:28;;;;;;;6.15;4.13;;;20.20;44.20;;;;;;5049759;28;44032;-65
2022/01/19 10:03:23;;;;;;;4.95;3.80;;;20.20;44.20;;;;;;5046683;28;44161;-64
2022/01/19 10:06:05;;;;;;;4.60;4.10;;;20.20;44.20;;;;;;5047751;28;43602;-65
2022/01/19 10:08:42;;;;;;;6.05;4.85;;;20.20;44.20;;;;;;5050725;28;43422;-64
2022/01/19 10:11:25;;;;;;;5.15;4.40;;;20.20;44.20;;;;;;5043067;28;43506;-65
2022/01/19 10:19:53;;;;;;;4.97;4.28;;;20.30;44.20;;;;;;5052760;28;43497;-65
2022/01/19 10:22:24;;;;;;;4.72;3.97;;;20.30;44.20;;;;;;5064476;28;43589;-65
2022/01/19 10:24:57;;;;;;;5.65;4.63;;;20.30;44.20;;;;;;5063356;28;44657;-64
2022/01/19 10:27:24;;;;;;;5.00;4.28;;;20.40;44.20;;;;;;5050369;28;43492;-65
2022/01/19 10:30:19;;;;;;;4.80;4.10;;;20.40;44.20;;;;;;5048836;28;43665;-65
2022/01/19 10:32:51;;;;;;;9.00;4.63;;;20.40;44.20;;;;;;5079187;27;43562;-65
2022/01/19 10:35:36;;;;;;;6.60;4.97;;;20.40;44.20;;;;;;5046605;28;43565;-65
2022/01/19 10:38:08;;;;;;;7.07;5.57;;;20.50;44.10;;;;;;5049333;28;43384;-64
2022/01/19 10:40:37;;;;;;;7.97;5.40;;;20.50;44.10;;;;;;5052581;28;43448;-65
2022/01/19 10:43:24;;;;;;;8.50;5.35;;;20.50;44.10;;;;;;5071439;28;43616;-65
2022/01/19 10:45:53;;;;;;;6.28;5.15;;;20.50;44.00;;;;;;5051584;28;43580;-65
2022/01/19 10:48:37;;;;;;;6.68;5.15;;;20.50;44.10;;;;;;5040789;28;43484;-65
2022/01/19 10:51:18;;;;;;;7.72;5.60;;;20.50;43.90;;;;;;5082981;27;43489;-64
2022/01/19 10:54:04;;;;;;;7.05;5.07;;;20.50;43.90;;;;;;5039050;28;43447;-65
2022/01/19 10:56:32;;;;;;;9.32;5.82;;;20.50;44.00;;;;;;5057236;28;44031;-64
2022/01/19 10:59:04;;;;;;;8.23;5.85;;;20.50;44.00;;;;;;5043784;28;44103;-63
2022/01/19 11:01:45;;;;;;;6.95;5.43;;;20.50;44.00;;;;;;5042357;28;43436;-64
2022/01/19 11:04:24;;;;;;;;;;;20.60;44.00;;;;;;5044421;28;43531;-64
2022/01/19 11:06:54;;;;;;;7.05;5.43;;;20.60;44.10;;;;;;5041655;28;43665;-64
2022/01/19 11:09:25;;;;;;;7.03;5.25;;;20.60;44.10;;;;;;5042537;28;43655;-64
2022/01/19 11:11:58;;;;;;;9.27;6.45;;;20.60;44.10;;;;;;5073387;27;43591;-64
2022/01/19 11:14:27;;;;;;;6.03;4.93;;;20.60;44.10;;;;;;5038739;28;43488;-64
2022/01/19 11:16:58;;;;;;;6.80;5.68;;;20.60;44.10;;;;;;5041439;28;44245;-64
2022/01/19 11:19:27;;;;;;;8.27;5.85;;;20.60;44.00;;;;;;5043194;28;43376;-64
2022/01/19 11:22:12;;;;;;;7.15;5.63;;;20.70;44.00;;;;;;5060284;28;43494;-64
2022/01/19 11:24:48;;;;;;;5.85;5.25;;;20.70;44.10;;;;;;5042432;28;43564;-64
2022/01/19 11:27:16;;;;;;;7.22;6.00;;;20.70;44.10;;;;;;5040514;28;43576;-64
2022/01/19 11:29:43;;;;;;;7.45;5.30;;;20.70;44.00;;;;;;5046089;28;43468;-64
2022/01/19 11:32:20;;;;;;;6.25;5.47;;;20.70;44.10;;;;;;5043267;28;43529;-64
2022/01/19 11:34:52;;;;;;;7.95;5.93;;;20.80;44.00;;;;;;5047165;28;43526;-63
2022/01/19 11:37:43;;;;;;;6.68;5.97;;;20.80;44.00;;;;;;5046988;28;43852;-65
2022/01/19 11:40:12;;;;;;;7.03;5.85;;;20.80;44.00;;;;;;5045526;28;44775;-64
2022/01/19 11:42:41;;;;;;;7.00;5.75;;;20.80;44.00;;;;;;5047186;28;43482;-65
2022/01/19 11:45:30;;;;;;;8.07;6.20;;;20.80;44.00;;;;;;5078992;27;43519;-63
2022/01/19 11:48:22;;;;;;;7.65;5.97;;;20.80;44.00;;;;;;5048960;28;43760;-64
2022/01/19 11:50:51;;;;;;;6.43;5.70;;;20.90;43.80;;;;;;5047626;28;43523;-62
2022/01/19 11:53:19;;;;;;;7.55;5.75;;;20.80;44.00;;;;;;5044377;28;43474;-65
2022/01/19 11:56:11;;;;;;;6.95;5.70;;;20.90;43.90;;;;;;5047835;28;43514;-64
2022/01/19 11:58:59;;;;;;;7.75;5.95;;;20.90;43.80;;;;;;5042318;28;43807;-64
2022/01/19 12:01:26;;;;;;;8.82;5.88;;;20.90;43.90;;;;;;5043925;28;43539;-64
2022/01/19 12:04:12;;;;;;;8.02;5.70;;;20.90;43.90;;;;;;5052814;28;43504;-64
2022/01/19 12:06:42;;;;;;;8.20;5.35;;;20.90;43.80;;;;;;5074760;27;43602;-65
2022/01/19 12:09:12;;;;;;;7.53;5.90;;;20.90;43.80;;;;;;5044962;28;43694;-64
2022/01/19 12:11:48;;;;;;;6.38;5.68;;;20.90;44.50;;;;;;5042502;28;44853;-65
2022/01/19 12:14:28;;;;;;;7.43;5.32;;;21.00;43.90;;;;;;5042896;28;43448;-65
2022/01/19 12:17:07;;;;;;;6.38;5.40;;;20.90;43.80;;;;;;5049533;28;43457;-64
2022/01/19 12:19:42;;;;;;;6.07;4.72;;;21.00;43.80;;;;;;5065755;28;43915;-64
2022/01/19 12:22:22;;;;;;;6.72;5.38;;;21.00;43.80;;;;;;5048479;28;43784;-63
2022/01/19 12:25:09;;;;;;;8.32;5.55;;;21.00;43.70;;;;;;5048068;28;43464;-65
2022/01/19 12:27:41;;;;;;;6.68;5.05;;;21.00;43.70;;;;;;5041601;28;43449;-64
2022/01/19 12:30:13;;;;;;;6.22;5.05;;;21.00;43.70;;;;;;5046567;28;43918;-64
2022/01/19 12:32:48;;;;;;;6.00;4.97;;;21.00;43.70;;;;;;5043942;28;43462;-64
2022/01/19 12:35:21;;;;;;;5.97;5.38;;;21.00;44.30;;;;;;5049802;28;43506;-64
2022/01/19 12:37:51;;;;;;;7.32;5.47;;;21.10;43.70;;;;;;5049188;28;43530;-64
2022/01/19 12:40:19;;;;;;;6.28;5.22;;;21.10;43.70;;;;;;5041705;28;43799;-64
2022/01/19 12:42:52;;;;;;;5.85;4.90;;;21.10;43.70;;;;;;5041861;28;43443;-64
2022/01/19 12:45:32;;;;;;;6.22;5.13;;;21.10;43.60;;;;;;5041098;28;43447;-64
2022/01/19 12:48:03;;;;;;;7.28;5.63;;;21.20;43.70;;;;;;5042135;28;43467;-64
2022/01/19 12:50:32;;;;;;;6.22;5.15;;;21.20;43.60;;;;;;5043670;28;43808;-65
2022/01/19 12:53:07;;;;;;;5.60;4.63;;;21.20;43.50;;;;;;5043641;28;43593;-65
2022/01/19 12:55:42;;;;;;;5.68;4.60;;;21.20;43.50;;;;;;5040998;28;43479;-64
2022/01/19 12:58:17;;;;;;;7.32;5.10;;;21.30;43.50;;;;;;5040997;28;43478;-65
2022/01/19 13:00:53;;;;;;;5.72;4.82;;;21.30;43.50;;;;;;5039056;28;43927;-64
2022/01/19 13:03:28;;;;;;;5.30;4.38;;;21.30;43.40;;;;;;5047442;28;43467;-65
2022/01/19 13:06:03;;;;;;;6.10;4.63;;;21.30;43.50;;;;;;5078097;27;43561;-65
2022/01/19 13:08:42;;;;;;;5.57;4.43;;;21.30;43.40;;;;;;5047419;28;43466;-65
2022/01/19 13:11:31;;;;;;;6.90;5.15;;;21.40;43.50;;;;;;5046329;28;43804;-65
2022/01/19 13:14:03;;;;;;;5.22;4.63;;;21.40;43.40;;;;;;5045268;28;44084;-65
2022/01/19 13:16:41;;;;;;;5.65;4.85;;;21.40;43.40;;;;;;5046490;28;43577;-66
2022/01/19 13:19:20;;;;;;;4.88;4.10;;;21.40;43.40;;;;;;5049706;28;43565;-65
2022/01/19 13:21:51;;;;;;;5.63;4.85;;;21.40;43.40;;;;;;5047419;28;43587;-65
2022/01/19 13:24:29;;;;;;;5.88;4.30;;;21.40;43.30;;;;;;5045501;28;44083;-65
2022/01/19 13:27:04;;;;;;;5.70;4.50;;;21.40;43.30;;;;;;5044796;28;43442;-65
2022/01/19 13:29:34;;;;;;;6.50;4.63;;;21.40;43.30;;;;;;5046083;28;43587;-66
2022/01/19 13:32:04;;;;;;;6.82;4.50;;;21.40;43.30;;;;;;5081455;27;43962;-65
2022/01/19 13:34:53;;;;;;;5.45;4.25;;;21.50;43.20;;;;;;5082371;27;43494;-65
2022/01/19 13:37:24;;;;;;;5.30;4.40;;;21.50;43.30;;;;;;5042353;28;43647;-65
2022/01/19 13:40:07;;;;;;;6.55;4.47;;;21.50;43.30;;;;;;5048233;28;43586;-65
2022/01/19 13:42:47;;;;;;;5.25;4.40;;;21.50;43.30;;;;;;5047745;28;44109;-65
2022/01/19 13:45:27;;;;;;;5.55;4.47;;;21.50;43.30;;;;;;5076587;27;43586;-66
2022/01/19 13:48:05;;;;;;;6.32;4.57;;;21.50;43.20;;;;;;5050071;28;43514;-65
2022/01/19 13:50:34;;;;;;;5.85;4.03;;;21.50;43.40;;;;;;5048265;28;43516;-65
2022/01/19 13:53:02;;;;;;;6.53;4.10;;;21.50;43.20;;;;;;5049835;28;44759;-65
2022/01/19 13:55:30;;;;;;;6.07;4.50;;;21.60;43.10;;;;;;5045577;28;44370;-65
2022/01/19 13:58:12;;;;;;;4.80;4.30;;;21.50;43.10;;;;;;5049710;28;43572;-65
2022/01/19 14:00:53;;;;;;;;;;;21.60;43.20;;;;;;5051078;28;44104;-65
2022/01/19 14:03:21;;;;;;;;;;;21.60;43.20;;;;;;5083301;27;44169;-65
2022/01/19 14:05:54;;;;;;;5.25;4.03;;;21.60;43.10;;;;;;5051443;28;43494;-65
2022/01/19 14:08:32;;;;;;;5.88;4.03;;;21.60;43.10;;;;;;5048427;28;43476;-65
2022/01/19 14:11:01;;;;;;;5.90;4.32;;;21.60;43.10;;;;;;5080800;27;43510;-65
2022/01/19 14:13:31;;;;;;;5.93;4.88;;;21.60;43.10;;;;;;5048101;28;44696;-65
2022/01/19 14:16:20;;;;;;;4.90;3.55;;;21.60;43.00;;;;;;5047034;28;43441;-65
2022/01/19 14:19:16;;;;;;;5.05;3.90;;;21.70;43.20;;;;;;5064395;28;43550;-65
2022/01/19 14:21:58;;;;;;;4.28;3.70;;;21.60;43.00;;;;;;5046852;28;43515;-64
2022/01/19 14:24:28;;;;;;;6.75;3.97;;;21.70;43.10;;;;;;5052040;28;44203;-65
2022/01/19 14:26:59;;;;;;;5.43;3.58;;;21.70;43.20;;;;;;5047124;28;44087;-65
2022/01/19 14:29:27;;;;;;;5.50;3.85;;;21.70;43.10;;;;;;5056370;28;43564;-65
2022/01/19 14:31:57;;;;;;;5.63;3.90;;;21.70;43.00;;;;;;5049802;28;43539;-65
2022/01/19 14:34:40;;;;;;;5.83;3.90;;;21.70;43.00;;;;;;5043506;28;44098;-65
2022/01/19 14:37:16;;;;;;;5.53;4.00;;;21.70;43.00;;;;;;5044329;28;43536;-65
2022/01/19 14:39:58;;;;;;;3.90;3.42;;;21.70;43.00;;;;;;5039637;28;43457;-65
2022/01/19 14:42:37;;;;;;;6.32;4.00;;;21.70;43.00;;;;;;5041095;28;43483;-65